Webb Lake, Wisconsin
Current Conditions -  °F | °C
As of 10:35 PM on Saturday 25 Oct 2014 (Local Time) from KRZN Reporting Station
Clear Clear  
Wind Chill: 38°   Ceiling: Unl
Heat Index: 38°   Visibility: 10mi
Dew Point: 26°   Wind: 3mph
Humidity: 62%   Direction: 280°W
Pressure: 30.03"   Gusts: NA
Location:  46.1107°N, 92.219°W
Report Text: KRZN 260335Z AUTO 28003KT 10SM CLR 04/M03 A3003 RMK AO2 T00351031
Loading
Personal Weather Stations






























Interactive Weather Map
Tropical Storm Tracking
New forecast layout! Learn more

10-Day Weather Forecast

Advertisements
Track Severe Weather on mobile